Hyde Park Estates, New Mexico
Current Conditions -  °F | °C
As of 6:53 AM on Saturday 25 Oct 2014 (Local Time) from KSAF Reporting Station
Clear Clear  
Wind Chill: 35°   Ceiling: Unl
Heat Index: 42°   Visibility: 10mi
Dew Point: 22°   Wind: 13mph
Humidity: 45%   Direction: 360°N
Pressure: 30.33"   Gusts: NA
Location:  35.7017°N, 105.921°W
Report Text: KSAF 251253Z AUTO 36011KT 10SM CLR 06/M06 A3033 RMK AO2 SLP210 T00561056
Loading
Personal Weather Stations






























Interactive Weather Map
Tropical Storm Tracking
New forecast layout! Learn more

10-Day Weather Forecast

Advertisements
Track Severe Weather on mobile